sensor_id;sensor_type;location;lat;lon;timestamp;pressure;altitude;pressure_sealevel;temperature;humidity
38880;BME280;25887;30.194;-97.880;2023-04-09T00:02:00;98810.13;;;18.34;61.54
38880;BME280;25887;30.194;-97.880;2023-04-09T00:04:26;98813.69;;;18.32;61.72
38880;BME280;25887;30.194;-97.880;2023-04-09T00:06:52;98814.53;;;18.32;61.65
38880;BME280;25887;30.194;-97.880;2023-04-09T00:09:18;98810.22;;;18.31;61.54
38880;BME280;25887;30.194;-97.880;2023-04-09T00:11:47;98817.22;;;18.29;61.74
38880;BME280;25887;30.194;-97.880;2023-04-09T00:14:13;98815.47;;;18.28;61.64
38880;BME280;25887;30.194;-97.880;2023-04-09T00:16:39;98824.19;;;18.27;61.71
38880;BME280;25887;30.194;-97.880;2023-04-09T00:19:06;98819.91;;;18.25;61.63
38880;BME280;25887;30.194;-97.880;2023-04-09T00:21:32;98823.41;;;18.24;61.80
38880;BME280;25887;30.194;-97.880;2023-04-09T00:23:58;98827.72;;;18.25;61.63
38880;BME280;25887;30.194;-97.880;2023-04-09T00:26:24;98832.09;;;18.23;61.85
38880;BME280;25887;30.194;-97.880;2023-04-09T00:28:51;98829.56;;;18.21;61.58
38880;BME280;25887;30.194;-97.880;2023-04-09T00:31:17;98835.59;;;18.22;61.52
38880;BME280;25887;30.194;-97.880;2023-04-09T00:33:43;98836.47;;;18.22;61.69
38880;BME280;25887;30.194;-97.880;2023-04-09T00:36:09;98840.81;;;18.20;61.40
38880;BME280;25887;30.194;-97.880;2023-04-09T00:38:35;98842.56;;;18.20;61.71
38880;BME280;25887;30.194;-97.880;2023-04-09T00:41:01;98845.22;;;18.18;61.78
38880;BME280;25887;30.194;-97.880;2023-04-09T00:43:28;98844.41;;;18.16;61.90
38880;BME280;25887;30.194;-97.880;2023-04-09T00:45:54;98849.59;;;18.16;61.57
38880;BME280;25887;30.194;-97.880;2023-04-09T00:48:21;98844.41;;;18.16;61.57
38880;BME280;25887;30.194;-97.880;2023-04-09T00:50:47;98847.03;;;18.15;61.79
38880;BME280;25887;30.194;-97.880;2023-04-09T00:53:13;98849.63;;;18.15;61.51
38880;BME280;25887;30.194;-97.880;2023-04-09T00:55:40;98850.53;;;18.14;61.65
38880;BME280;25887;30.194;-97.880;2023-04-09T00:58:07;98851.41;;;18.13;61.85
38880;BME280;25887;30.194;-97.880;2023-04-09T01:00:33;98849.72;;;18.10;61.48
38880;BME280;25887;30.194;-97.880;2023-04-09T01:03:00;98854.97;;;18.08;61.70
38880;BME280;25887;30.194;-97.880;2023-04-09T01:05:37;98850.66;;;18.07;61.66
38880;BME280;25887;30.194;-97.880;2023-04-09T01:11:45;98861.97;;;18.06;61.80
38880;BME280;25887;30.194;-97.880;2023-04-09T01:17:01;98857.66;;;18.05;61.52
38880;BME280;25887;30.194;-97.880;2023-04-09T01:19:48;98862.84;;;18.05;61.53
38880;BME280;25887;30.194;-97.880;2023-04-09T01:31:08;98880.25;;;18.02;61.74
38880;BME280;25887;30.194;-97.880;2023-04-09T01:33:38;98876.03;;;17.98;61.49
38880;BME280;25887;30.194;-97.880;2023-04-09T01:36:08;98869.09;;;17.97;61.73
38880;BME280;25887;30.194;-97.880;2023-04-09T01:38:38;98874.31;;;17.95;61.68
38880;BME280;25887;30.194;-97.880;2023-04-09T01:41:06;98884.72;;;17.95;61.71
38880;BME280;25887;30.194;-97.880;2023-04-09T01:43:33;98878.72;;;17.93;61.62
38880;BME280;25887;30.194;-97.880;2023-04-09T01:46:01;98879.56;;;17.94;61.73
38880;BME280;25887;30.194;-97.880;2023-04-09T01:48:31;98879.59;;;17.92;61.73
38880;BME280;25887;30.194;-97.880;2023-04-09T01:50:59;98883.94;;;17.92;61.55
38880;BME280;25887;30.194;-97.880;2023-04-09T01:53:25;98887.44;;;17.91;61.68
38880;BME280;25887;30.194;-97.880;2023-04-09T01:55:58;98889.16;;;17.92;61.76
38880;BME280;25887;30.194;-97.880;2023-04-09T01:58:26;98886.59;;;17.90;61.84
38880;BME280;25887;30.194;-97.880;2023-04-09T02:01:00;98891.75;;;17.92;61.47
38880;BME280;25887;30.194;-97.880;2023-04-09T02:03:34;98902.16;;;17.92;61.68
38880;BME280;25887;30.194;-97.880;2023-04-09T02:06:46;98902.97;;;17.94;61.71
38880;BME280;25887;30.194;-97.880;2023-04-09T02:09:23;98903.88;;;17.91;61.83
38880;BME280;25887;30.194;-97.880;2023-04-09T02:12:00;98909.09;;;17.90;61.73
38880;BME280;25887;30.194;-97.880;2023-04-09T02:14:28;98907.38;;;17.89;62.05
38880;BME280;25887;30.194;-97.880;2023-04-09T02:16:56;98908.28;;;17.88;61.91
38880;BME280;25887;30.194;-97.880;2023-04-09T02:19:22;98908.28;;;17.88;61.73
38880;BME280;25887;30.194;-97.880;2023-04-09T02:21:49;98915.19;;;17.90;61.84
38880;BME280;25887;30.194;-97.880;2023-04-09T02:24:16;98911.69;;;17.90;61.90
38880;BME280;25887;30.194;-97.880;2023-04-09T02:26:42;98917.78;;;17.90;61.89
38880;BME280;25887;30.194;-97.880;2023-04-09T02:29:08;98914.28;;;17.91;61.71
38880;BME280;25887;30.194;-97.880;2023-04-09T02:31:35;98921.19;;;17.92;61.75
38880;BME280;25887;30.194;-97.880;2023-04-09T02:34:01;98924.59;;;17.94;61.86
38880;BME280;25887;30.194;-97.880;2023-04-09T02:36:27;98926.41;;;17.92;61.69
38880;BME280;25887;30.194;-97.880;2023-04-09T02:38:55;98931.56;;;17.94;61.93
38880;BME280;25887;30.194;-97.880;2023-04-09T02:41:22;98934.16;;;17.94;61.92
38880;BME280;25887;30.194;-97.880;2023-04-09T02:43:49;98934.16;;;17.94;61.82
38880;BME280;25887;30.194;-97.880;2023-04-09T02:46:15;98947.97;;;17.96;61.86
38880;BME280;25887;30.194;-97.880;2023-04-09T02:48:41;98951.47;;;17.95;61.77
38880;BME280;25887;30.194;-97.880;2023-04-09T02:51:08;98953.16;;;17.96;61.69
38880;BME280;25887;30.194;-97.880;2023-04-09T02:53:34;98959.25;;;17.95;61.85
38880;BME280;25887;30.194;-97.880;2023-04-09T02:56:02;98960.19;;;17.92;61.84
38880;BME280;25887;30.194;-97.880;2023-04-09T02:58:28;98958.44;;;17.93;61.39
38880;BME280;25887;30.194;-97.880;2023-04-09T03:00:55;98960.22;;;17.91;61.96
38880;BME280;25887;30.194;-97.880;2023-04-09T03:03:21;98956.78;;;17.89;62.21
38880;BME280;25887;30.194;-97.880;2023-04-09T03:05:47;98966.31;;;17.88;61.98
38880;BME280;25887;30.194;-97.880;2023-04-09T03:08:13;98967.25;;;17.86;61.79
38880;BME280;25887;30.194;-97.880;2023-04-09T03:10:39;98969.03;;;17.84;61.84
38880;BME280;25887;30.194;-97.880;2023-04-09T03:13:06;98972.44;;;17.86;61.72
38880;BME280;25887;30.194;-97.880;2023-04-09T03:15:32;98966.41;;;17.85;61.90
38880;BME280;25887;30.194;-97.880;2023-04-09T03:17:59;98969.88;;;17.84;61.74
38880;BME280;25887;30.194;-97.880;2023-04-09T03:20:25;98974.22;;;17.84;61.92
38880;BME280;25887;30.194;-97.880;2023-04-09T03:22:51;98975.06;;;17.86;61.68
38880;BME280;25887;30.194;-97.880;2023-04-09T03:25:18;98971.56;;;17.87;61.92
38880;BME280;25887;30.194;-97.880;2023-04-09T03:27:45;98981.06;;;17.88;61.71
38880;BME280;25887;30.194;-97.880;2023-04-09T03:30:11;98980.22;;;17.87;62.03
38880;BME280;25887;30.194;-97.880;2023-04-09T03:32:37;98981.13;;;17.85;61.90
38880;BME280;25887;30.194;-97.880;2023-04-09T03:35:04;98986.38;;;17.83;61.90
38880;BME280;25887;30.194;-97.880;2023-04-09T03:37:31;98988.13;;;17.83;61.88
38880;BME280;25887;30.194;-97.880;2023-04-09T03:39:57;98994.16;;;17.83;61.63
38880;BME280;25887;30.194;-97.880;2023-04-09T03:42:23;98993.31;;;17.83;61.95
38880;BME280;25887;30.194;-97.880;2023-04-09T03:44:52;99004.56;;;17.81;61.82
38880;BME280;25887;30.194;-97.880;2023-04-09T03:47:21;99000.25;;;17.80;61.81
38880;BME280;25887;30.194;-97.880;2023-04-09T03:49:47;99010.66;;;17.80;61.96
38880;BME280;25887;30.194;-97.880;2023-04-09T03:52:13;98996.88;;;17.77;62.02
38880;BME280;25887;30.194;-97.880;2023-04-09T03:54:39;98998.66;;;17.75;62.03
38880;BME280;25887;30.194;-97.880;2023-04-09T03:57:08;99004.72;;;17.75;61.72
38880;BME280;25887;30.194;-97.880;2023-04-09T03:59:35;99004.72;;;17.75;61.91
38880;BME280;25887;30.194;-97.880;2023-04-09T04:02:01;99009.06;;;17.75;62.20
38880;BME280;25887;30.194;-97.880;2023-04-09T04:04:27;99010.81;;;17.74;61.98
38880;BME280;25887;30.194;-97.880;2023-04-09T04:06:53;99009.06;;;17.75;62.02
38880;BME280;25887;30.194;-97.880;2023-04-09T04:09:19;99002.16;;;17.72;61.85
38880;BME280;25887;30.194;-97.880;2023-04-09T04:11:46;99005.59;;;17.74;62.17
38880;BME280;25887;30.194;-97.880;2023-04-09T04:14:14;99005.56;;;17.76;62.14
38880;BME280;25887;30.194;-97.880;2023-04-09T04:16:41;99007.31;;;17.75;61.89
38880;BME280;25887;30.194;-97.880;2023-04-09T04:19:07;99003.84;;;17.75;61.90
38880;BME280;25887;30.194;-97.880;2023-04-09T04:21:33;99004.72;;;17.75;62.13
38880;BME280;25887;30.194;-97.880;2023-04-09T04:23:59;99005.59;;;17.74;62.15
38880;BME280;25887;30.194;-97.880;2023-04-09T04:26:26;99005.59;;;17.74;61.90
38880;BME280;25887;30.194;-97.880;2023-04-09T04:28:52;99006.47;;;17.75;62.04
38880;BME280;25887;30.194;-97.880;2023-04-09T04:31:18;99007.34;;;17.72;61.89
38880;BME280;25887;30.194;-97.880;2023-04-09T04:33:44;99003.88;;;17.73;61.88
38880;BME280;25887;30.194;-97.880;2023-04-09T04:36:12;99007.31;;;17.75;62.00
38880;BME280;25887;30.194;-97.880;2023-04-09T04:38:39;99015.97;;;17.76;62.04
38880;BME280;25887;30.194;-97.880;2023-04-09T04:41:10;99014.25;;;17.75;62.05
38880;BME280;25887;30.194;-97.880;2023-04-09T04:43:36;99021.16;;;17.76;61.89
38880;BME280;25887;30.194;-97.880;2023-04-09T04:46:03;99016.84;;;17.75;61.97
38880;BME280;25887;30.194;-97.880;2023-04-09T04:48:30;99015.13;;;17.74;61.97
38880;BME280;25887;30.194;-97.880;2023-04-09T04:50:58;99022.06;;;17.75;62.18
38880;BME280;25887;30.194;-97.880;2023-04-09T04:53:24;99025.53;;;17.72;62.06
38880;BME280;25887;30.194;-97.880;2023-04-09T04:55:50;99020.31;;;17.74;62.09
38880;BME280;25887;30.194;-97.880;2023-04-09T04:58:17;99024.66;;;17.73;61.71
38880;BME280;25887;30.194;-97.880;2023-04-09T05:00:44;99021.19;;;17.74;62.26
38880;BME280;25887;30.194;-97.880;2023-04-09T05:03:11;99016.00;;;17.74;62.12
38880;BME280;25887;30.194;-97.880;2023-04-09T05:05:37;99022.06;;;17.75;62.18
38880;BME280;25887;30.194;-97.880;2023-04-09T05:08:04;99023.75;;;17.76;62.02
38880;BME280;25887;30.194;-97.880;2023-04-09T05:10:30;99018.59;;;17.74;61.88
38880;BME280;25887;30.194;-97.880;2023-04-09T05:12:56;99024.66;;;17.75;62.10
38880;BME280;25887;30.194;-97.880;2023-04-09T05:15:22;99012.50;;;17.75;62.00
38880;BME280;25887;30.194;-97.880;2023-04-09T05:17:48;99016.81;;;17.76;62.06
38880;BME280;25887;30.194;-97.880;2023-04-09T05:20:15;99016.81;;;17.76;62.04
38880;BME280;25887;30.194;-97.880;2023-04-09T05:22:42;99013.31;;;17.77;62.23
38880;BME280;25887;30.194;-97.880;2023-04-09T05:25:08;99005.53;;;17.77;61.87
38880;BME280;25887;30.194;-97.880;2023-04-09T05:27:35;99009.03;;;17.76;62.03
38880;BME280;25887;30.194;-97.880;2023-04-09T05:30:01;99014.22;;;17.76;62.05
38880;BME280;25887;30.194;-97.880;2023-04-09T05:32:28;99015.09;;;17.75;62.04
38880;BME280;25887;30.194;-97.880;2023-04-09T05:34:55;99015.13;;;17.74;62.32
38880;BME280;25887;30.194;-97.880;2023-04-09T05:37:21;99009.09;;;17.72;62.33
38880;BME280;25887;30.194;-97.880;2023-04-09T05:39:47;99018.63;;;17.71;62.05
38880;BME280;25887;30.194;-97.880;2023-04-09T05:42:13;99014.31;;;17.70;62.10
38880;BME280;25887;30.194;-97.880;2023-04-09T05:44:40;99009.13;;;17.70;61.92
38880;BME280;25887;30.194;-97.880;2023-04-09T05:47:06;99011.72;;;17.69;62.30
38880;BME280;25887;30.194;-97.880;2023-04-09T05:49:38;99003.94;;;17.70;62.14
38880;BME280;25887;30.194;-97.880;2023-04-09T05:52:08;98994.44;;;17.68;62.21
38880;BME280;25887;30.194;-97.880;2023-04-09T05:54:35;98991.84;;;17.68;62.17
38880;BME280;25887;30.194;-97.880;2023-04-09T05:57:01;98995.31;;;17.67;62.35
38880;BME280;25887;30.194;-97.880;2023-04-09T05:59:28;98995.31;;;17.67;62.34
38880;BME280;25887;30.194;-97.880;2023-04-09T06:01:54;99002.22;;;17.66;62.00
38880;BME280;25887;30.194;-97.880;2023-04-09T06:04:20;98991.84;;;17.66;62.19
38880;BME280;25887;30.194;-97.880;2023-04-09T06:06:46;99002.22;;;17.66;62.37
38880;BME280;25887;30.194;-97.880;2023-04-09T06:09:13;98995.31;;;17.67;62.40
38880;BME280;25887;30.194;-97.880;2023-04-09T06:11:39;98999.63;;;17.66;62.15
38880;BME280;25887;30.194;-97.880;2023-04-09T06:14:05;98998.78;;;17.67;62.31
38880;BME280;25887;30.194;-97.880;2023-04-09T06:16:32;98996.19;;;17.67;62.21
38880;BME280;25887;30.194;-97.880;2023-04-09T06:18:59;98991.84;;;17.68;62.15
38880;BME280;25887;30.194;-97.880;2023-04-09T06:21:25;98991.78;;;17.69;62.47
38880;BME280;25887;30.194;-97.880;2023-04-09T06:23:51;98990.97;;;17.67;62.13
38880;BME280;25887;30.194;-97.880;2023-04-09T06:26:18;98988.34;;;17.70;62.04
38880;BME280;25887;30.194;-97.880;2023-04-09T06:28:45;98987.44;;;17.70;62.26
38880;BME280;25887;30.194;-97.880;2023-04-09T06:31:12;98986.63;;;17.68;62.36
38880;BME280;25887;30.194;-97.880;2023-04-09T06:33:38;98986.63;;;17.66;62.35
38880;BME280;25887;30.194;-97.880;2023-04-09T06:36:04;98984.94;;;17.65;62.25
38880;BME280;25887;30.194;-97.880;2023-04-09T06:38:30;98976.34;;;17.62;62.29
38880;BME280;25887;30.194;-97.880;2023-04-09T06:40:57;98979.81;;;17.62;62.26
38880;BME280;25887;30.194;-97.880;2023-04-09T06:43:23;98990.16;;;17.64;62.36
38880;BME280;25887;30.194;-97.880;2023-04-09T06:45:49;98980.66;;;17.63;62.22
38880;BME280;25887;30.194;-97.880;2023-04-09T06:48:15;98978.06;;;17.63;62.31
38880;BME280;25887;30.194;-97.880;2023-04-09T06:50:43;98978.91;;;17.63;62.12
38880;BME280;25887;30.194;-97.880;2023-04-09T06:53:10;98978.03;;;17.64;62.28
38880;BME280;25887;30.194;-97.880;2023-04-09T06:55:36;98979.72;;;17.65;62.27
38880;BME280;25887;30.194;-97.880;2023-04-09T06:58:02;98980.63;;;17.64;62.50
38880;BME280;25887;30.194;-97.880;2023-04-09T07:00:29;98985.81;;;17.64;62.58
38880;BME280;25887;30.194;-97.880;2023-04-09T07:02:55;98980.63;;;17.64;62.34
38880;BME280;25887;30.194;-97.880;2023-04-09T07:05:22;98978.03;;;17.64;62.30
38880;BME280;25887;30.194;-97.880;2023-04-09T07:07:50;98972.00;;;17.62;62.23
38880;BME280;25887;30.194;-97.880;2023-04-09T07:10:16;98969.41;;;17.62;62.62
38880;BME280;25887;30.194;-97.880;2023-04-09T07:12:42;98964.25;;;17.61;62.41
38880;BME280;25887;30.194;-97.880;2023-04-09T07:15:09;98959.94;;;17.60;62.42
38880;BME280;25887;30.194;-97.880;2023-04-09T07:17:35;98962.53;;;17.60;62.38
38880;BME280;25887;30.194;-97.880;2023-04-09T07:20:01;98955.59;;;17.59;62.34
38880;BME280;25887;30.194;-97.880;2023-04-09T07:22:28;98953.88;;;17.58;62.39
38880;BME280;25887;30.194;-97.880;2023-04-09T07:24:55;98956.50;;;17.58;62.32
38880;BME280;25887;30.194;-97.880;2023-04-09T07:27:23;98959.94;;;17.58;62.16
38880;BME280;25887;30.194;-97.880;2023-04-09T07:29:50;98960.84;;;17.57;62.25
38880;BME280;25887;30.194;-97.880;2023-04-09T07:32:16;98966.00;;;17.59;62.41
38880;BME280;25887;30.194;-97.880;2023-04-09T07:34:43;98962.53;;;17.58;62.54
38880;BME280;25887;30.194;-97.880;2023-04-09T07:37:09;98959.13;;;17.56;62.15
38880;BME280;25887;30.194;-97.880;2023-04-09T07:39:36;98964.28;;;17.58;62.43
38880;BME280;25887;30.194;-97.880;2023-04-09T07:42:03;98966.88;;;17.59;62.60
38880;BME280;25887;30.194;-97.880;2023-04-09T07:44:35;98960.78;;;17.59;62.30
38880;BME280;25887;30.194;-97.880;2023-04-09T07:47:02;98956.50;;;17.58;62.29
38880;BME280;25887;30.194;-97.880;2023-04-09T07:49:29;98959.94;;;17.58;62.22
38880;BME280;25887;30.194;-97.880;2023-04-09T07:51:57;98957.34;;;17.58;62.62
38880;BME280;25887;30.194;-97.880;2023-04-09T07:54:23;98958.19;;;17.59;62.38
38880;BME280;25887;30.194;-97.880;2023-04-09T07:56:50;98956.50;;;17.59;62.34
38880;BME280;25887;30.194;-97.880;2023-04-09T07:59:17;98957.34;;;17.58;62.53
38880;BME280;25887;30.194;-97.880;2023-04-09T08:01:43;98946.13;;;17.56;62.39
38880;BME280;25887;30.194;-97.880;2023-04-09T08:04:10;98947.84;;;17.57;62.39
38880;BME280;25887;30.194;-97.880;2023-04-09T08:06:37;98948.72;;;17.56;62.41
38880;BME280;25887;30.194;-97.880;2023-04-09T08:09:04;98947.88;;;17.55;62.64
38880;BME280;25887;30.194;-97.880;2023-04-09T08:11:30;98946.16;;;17.54;62.52
38880;BME280;25887;30.194;-97.880;2023-04-09T08:13:57;98943.59;;;17.53;62.72
38880;BME280;25887;30.194;-97.880;2023-04-09T08:16:25;98938.44;;;17.50;62.74
38880;BME280;25887;30.194;-97.880;2023-04-09T08:18:53;98939.34;;;17.49;62.52
38880;BME280;25887;30.194;-97.880;2023-04-09T08:21:19;98944.53;;;17.49;62.57
38880;BME280;25887;30.194;-97.880;2023-04-09T08:23:45;98940.22;;;17.48;62.50
38880;BME280;25887;30.194;-97.880;2023-04-09T08:26:12;98946.31;;;17.47;62.38
38880;BME280;25887;30.194;-97.880;2023-04-09T08:28:38;98939.41;;;17.46;62.60
38880;BME280;25887;30.194;-97.880;2023-04-09T08:31:04;98935.97;;;17.45;62.63
38880;BME280;25887;30.194;-97.880;2023-04-09T08:33:30;98935.13;;;17.43;62.54
38880;BME280;25887;30.194;-97.880;2023-04-09T08:35:57;98934.25;;;17.44;62.53
38880;BME280;25887;30.194;-97.880;2023-04-09T08:38:23;98934.25;;;17.44;62.76
38880;BME280;25887;30.194;-97.880;2023-04-09T08:40:49;98927.34;;;17.43;62.60
38880;BME280;25887;30.194;-97.880;2023-04-09T08:43:15;98934.25;;;17.44;62.75
38880;BME280;25887;30.194;-97.880;2023-04-09T08:45:44;98935.09;;;17.45;62.80
38880;BME280;25887;30.194;-97.880;2023-04-09T08:48:12;98931.66;;;17.43;62.99
38880;BME280;25887;30.194;-97.880;2023-04-09T08:50:39;98927.34;;;17.43;62.71
38880;BME280;25887;30.194;-97.880;2023-04-09T08:53:07;98936.06;;;17.39;62.72
38880;BME280;25887;30.194;-97.880;2023-04-09T08:55:33;98935.22;;;17.39;62.81
38880;BME280;25887;30.194;-97.880;2023-04-09T08:58:03;98927.44;;;17.37;62.71
38880;BME280;25887;30.194;-97.880;2023-04-09T09:00:30;98926.59;;;17.37;62.75
38880;BME280;25887;30.194;-97.880;2023-04-09T09:03:06;98925.72;;;17.38;62.68
38880;BME280;25887;30.194;-97.880;2023-04-09T09:05:40;98926.59;;;17.37;62.93
38880;BME280;25887;30.194;-97.880;2023-04-09T09:08:11;98920.50;;;17.38;62.71
38880;BME280;25887;30.194;-97.880;2023-04-09T09:10:42;98920.50;;;17.38;62.86
38880;BME280;25887;30.194;-97.880;2023-04-09T09:13:24;98919.63;;;17.39;62.63
38880;BME280;25887;30.194;-97.880;2023-04-09T09:15:53;98917.91;;;17.38;62.71
38880;BME280;25887;30.194;-97.880;2023-04-09T09:18:38;98916.13;;;17.40;62.66
38880;BME280;25887;30.194;-97.880;2023-04-09T09:21:15;98911.84;;;17.39;62.68
38880;BME280;25887;30.194;-97.880;2023-04-09T09:23:42;98910.16;;;17.35;63.00
38880;BME280;25887;30.194;-97.880;2023-04-09T09:26:21;98905.81;;;17.37;62.74
38880;BME280;25887;30.194;-97.880;2023-04-09T09:28:48;98906.72;;;17.34;63.10
38880;BME280;25887;30.194;-97.880;2023-04-09T09:31:16;98912.75;;;17.35;63.05
38880;BME280;25887;30.194;-97.880;2023-04-09T09:33:42;98913.63;;;17.35;62.79
38880;BME280;25887;30.194;-97.880;2023-04-09T09:36:09;98911.03;;;17.35;62.74
38880;BME280;25887;30.194;-97.880;2023-04-09T09:38:56;98917.91;;;17.38;62.80
38880;BME280;25887;30.194;-97.880;2023-04-09T09:41:23;98919.72;;;17.33;62.96
38880;BME280;25887;30.194;-97.880;2023-04-09T09:43:50;98918.84;;;17.34;62.86
38880;BME280;25887;30.194;-97.880;2023-04-09T09:46:16;98916.28;;;17.32;62.85
38880;BME280;25887;30.194;-97.880;2023-04-09T09:48:43;98916.28;;;17.32;62.71
38880;BME280;25887;30.194;-97.880;2023-04-09T09:51:14;98913.69;;;17.32;62.90
38880;BME280;25887;30.194;-97.880;2023-04-09T09:53:43;98911.13;;;17.31;62.93
38880;BME280;25887;30.194;-97.880;2023-04-09T09:56:20;98920.66;;;17.30;62.84
38880;BME280;25887;30.194;-97.880;2023-04-09T09:59:00;98916.38;;;17.27;63.02
38880;BME280;25887;30.194;-97.880;2023-04-09T10:01:28;98916.41;;;17.24;62.76
38880;BME280;25887;30.194;-97.880;2023-04-09T10:03:56;98920.75;;;17.24;63.01
38880;BME280;25887;30.194;-97.880;2023-04-09T10:06:25;98913.88;;;17.23;62.93
38880;BME280;25887;30.194;-97.880;2023-04-09T10:08:56;98913.00;;;17.22;62.81
38880;BME280;25887;30.194;-97.880;2023-04-09T10:11:23;98912.16;;;17.22;62.83
38880;BME280;25887;30.194;-97.880;2023-04-09T10:13:56;98916.50;;;17.21;62.96
38880;BME280;25887;30.194;-97.880;2023-04-09T10:16:26;98911.28;;;17.21;62.79
38880;BME280;25887;30.194;-97.880;2023-04-09T10:18:54;98909.59;;;17.20;62.89
38880;BME280;25887;30.194;-97.880;2023-04-09T10:24:03;98919.13;;;17.20;63.20
38880;BME280;25887;30.194;-97.880;2023-04-09T10:26:33;98915.72;;;17.16;62.98
38880;BME280;25887;30.194;-97.880;2023-04-09T10:29:08;98915.66;;;17.18;63.12
38880;BME280;25887;30.194;-97.880;2023-04-09T10:32:02;98916.53;;;17.18;63.03
38880;BME280;25887;30.194;-97.880;2023-04-09T10:34:29;98914.03;;;17.14;63.11
38880;BME280;25887;30.194;-97.880;2023-04-09T10:36:57;98925.28;;;17.14;62.90
38880;BME280;25887;30.194;-97.880;2023-04-09T10:39:30;98927.91;;;17.11;62.96
38880;BME280;25887;30.194;-97.880;2023-04-09T10:42:05;98933.09;;;17.11;63.10
38880;BME280;25887;30.194;-97.880;2023-04-09T10:44:33;98945.22;;;17.11;63.15
38880;BME280;25887;30.194;-97.880;2023-04-09T10:47:03;98935.75;;;17.08;62.77
38880;BME280;25887;30.194;-97.880;2023-04-09T10:49:48;98938.31;;;17.10;63.07
38880;BME280;25887;30.194;-97.880;2023-04-09T10:52:14;98935.81;;;17.05;63.13
38880;BME280;25887;30.194;-97.880;2023-04-09T10:54:44;98949.66;;;17.04;63.34
38880;BME280;25887;30.194;-97.880;2023-04-09T10:57:12;98947.94;;;17.03;63.15
38880;BME280;25887;30.194;-97.880;2023-04-09T10:59:41;98950.56;;;17.02;63.26
38880;BME280;25887;30.194;-97.880;2023-04-09T11:05:30;98958.41;;;17.00;63.12
38880;BME280;25887;30.194;-97.880;2023-04-09T11:08:03;98965.38;;;16.95;63.10
38880;BME280;25887;30.194;-97.880;2023-04-09T11:10:30;98969.75;;;16.93;63.11
38880;BME280;25887;30.194;-97.880;2023-04-09T11:12:57;98969.78;;;16.91;63.37
38880;BME280;25887;30.194;-97.880;2023-04-09T11:15:23;98973.31;;;16.89;63.36
38880;BME280;25887;30.194;-97.880;2023-04-09T11:17:49;98984.53;;;16.89;63.27
38880;BME280;25887;30.194;-97.880;2023-04-09T11:20:18;98986.31;;;16.86;63.19
38880;BME280;25887;30.194;-97.880;2023-04-09T11:22:46;98992.34;;;16.86;63.21
38880;BME280;25887;30.194;-97.880;2023-04-09T11:25:26;98990.59;;;16.90;63.27
38880;BME280;25887;30.194;-97.880;2023-04-09T11:27:53;99001.00;;;16.87;63.23
38880;BME280;25887;30.194;-97.880;2023-04-09T11:30:19;99003.59;;;16.87;63.32
38880;BME280;25887;30.194;-97.880;2023-04-09T11:32:47;99005.31;;;16.86;63.27
38880;BME280;25887;30.194;-97.880;2023-04-09T11:35:15;99015.72;;;16.86;63.49
38880;BME280;25887;30.194;-97.880;2023-04-09T11:37:43;99014.84;;;16.86;63.49
38880;BME280;25887;30.194;-97.880;2023-04-09T11:40:26;99020.03;;;16.86;63.36
38880;BME280;25887;30.194;-97.880;2023-04-09T11:42:54;99025.22;;;16.86;63.47
38880;BME280;25887;30.194;-97.880;2023-04-09T11:45:28;99029.53;;;16.87;63.26
38880;BME280;25887;30.194;-97.880;2023-04-09T11:47:55;99024.38;;;16.85;63.49
38880;BME280;25887;30.194;-97.880;2023-04-09T11:50:22;99020.94;;;16.85;63.29
38880;BME280;25887;30.194;-97.880;2023-04-09T11:52:49;99032.16;;;16.85;63.46
38880;BME280;25887;30.194;-97.880;2023-04-09T11:55:33;99034.69;;;16.88;63.37
38880;BME280;25887;30.194;-97.880;2023-04-09T11:57:59;99043.31;;;16.92;63.25
38880;BME280;25887;30.194;-97.880;2023-04-09T12:00:27;99041.69;;;16.85;63.16
38880;BME280;25887;30.194;-97.880;2023-04-09T12:03:03;99052.00;;;16.88;63.26
38880;BME280;25887;30.194;-97.880;2023-04-09T12:05:32;99050.31;;;16.87;63.42
38880;BME280;25887;30.194;-97.880;2023-04-09T12:08:08;99056.34;;;16.87;63.56
38880;BME280;25887;30.194;-97.880;2023-04-09T12:10:36;99061.53;;;16.87;63.57
38880;BME280;25887;30.194;-97.880;2023-04-09T12:13:06;99055.50;;;16.87;63.50
38880;BME280;25887;30.194;-97.880;2023-04-09T12:15:37;99069.31;;;16.87;63.62
38880;BME280;25887;30.194;-97.880;2023-04-09T12:18:10;99063.28;;;16.87;63.50
38880;BME280;25887;30.194;-97.880;2023-04-09T12:20:41;99072.78;;;16.88;63.50
38880;BME280;25887;30.194;-97.880;2023-04-09T12:23:12;99076.25;;;16.87;63.47
38880;BME280;25887;30.194;-97.880;2023-04-09T12:25:44;99080.56;;;16.88;63.60
38880;BME280;25887;30.194;-97.880;2023-04-09T12:28:14;99089.22;;;16.90;63.49
38880;BME280;25887;30.194;-97.880;2023-04-09T12:30:42;99089.22;;;16.90;63.72
38880;BME280;25887;30.194;-97.880;2023-04-09T12:33:10;99094.41;;;16.90;63.22
38880;BME280;25887;30.194;-97.880;2023-04-09T12:35:36;99096.13;;;16.91;63.65
38880;BME280;25887;30.194;-97.880;2023-04-09T12:38:02;99107.31;;;16.93;63.58
38880;BME280;25887;30.194;-97.880;2023-04-09T12:40:31;99108.19;;;16.92;63.75
38880;BME280;25887;30.194;-97.880;2023-04-09T12:42:57;99109.03;;;16.94;63.66
38880;BME280;25887;30.194;-97.880;2023-04-09T12:45:23;99120.28;;;16.94;63.78
38880;BME280;25887;30.194;-97.880;2023-04-09T12:47:50;99123.72;;;16.95;63.80
38880;BME280;25887;30.194;-97.880;2023-04-09T12:50:16;99121.13;;;16.95;63.93
38880;BME280;25887;30.194;-97.880;2023-04-09T12:52:43;99113.34;;;16.96;63.80
38880;BME280;25887;30.194;-97.880;2023-04-09T12:55:10;99115.94;;;16.96;63.74
38880;BME280;25887;30.194;-97.880;2023-04-09T12:57:37;99122.81;;;16.99;63.71
38880;BME280;25887;30.194;-97.880;2023-04-09T13:00:06;99127.13;;;17.00;64.02
38880;BME280;25887;30.194;-97.880;2023-04-09T13:02:32;99126.25;;;17.01;63.83
38880;BME280;25887;30.194;-97.880;2023-04-09T13:04:59;99128.84;;;17.01;63.93
38880;BME280;25887;30.194;-97.880;2023-04-09T13:07:25;99137.47;;;17.05;63.71